sensor_id;sensor_type;location;lat;lon;timestamp;P1;durP1;ratioP1;P2;durP2;ratioP2
40150;SDS011;25866;52.420;10.640;2024-03-23T00:55:05;20.02;;;8.98;;
40150;SDS011;25866;52.420;10.640;2024-03-23T00:57:32;16.55;;;8.50;;
40150;SDS011;25866;52.420;10.640;2024-03-23T00:59:58;13.83;;;6.90;;
40150;SDS011;25866;52.420;10.640;2024-03-23T01:02:24;13.70;;;6.20;;
40150;SDS011;25866;52.420;10.640;2024-03-23T01:04:50;19.73;;;6.90;;
40150;SDS011;25866;52.420;10.640;2024-03-23T01:07:16;15.83;;;5.80;;
40150;SDS011;25866;52.420;10.640;2024-03-23T01:09:41;14.33;;;5.47;;
40150;SDS011;25866;52.420;10.640;2024-03-23T01:12:09;14.37;;;4.53;;
40150;SDS011;25866;52.420;10.640;2024-03-23T01:14:34;12.17;;;4.00;;
40150;SDS011;25866;52.420;10.640;2024-03-23T01:17:07;8.60;;;4.00;;
40150;SDS011;25866;52.420;10.640;2024-03-23T01:19:33;9.83;;;4.13;;
40150;SDS011;25866;52.420;10.640;2024-03-23T01:21:58;13.77;;;3.90;;
40150;SDS011;25866;52.420;10.640;2024-03-23T01:24:24;10.77;;;3.50;;
40150;SDS011;25866;52.420;10.640;2024-03-23T01:26:50;10.40;;;4.13;;
40150;SDS011;25866;52.420;10.640;2024-03-23T01:29:16;13.13;;;4.80;;
40150;SDS011;25866;52.420;10.640;2024-03-23T01:31:42;9.07;;;4.13;;
40150;SDS011;25866;52.420;10.640;2024-03-23T01:34:07;10.80;;;4.00;;
40150;SDS011;25866;52.420;10.640;2024-03-23T01:36:35;10.23;;;4.60;;
40150;SDS011;25866;52.420;10.640;2024-03-23T01:39:01;9.40;;;3.67;;
40150;SDS011;25866;52.420;10.640;2024-03-23T01:41:30;12.70;;;4.70;;
40150;SDS011;25866;52.420;10.640;2024-03-23T01:43:56;12.40;;;4.13;;
40150;SDS011;25866;52.420;10.640;2024-03-23T01:46:22;11.63;;;4.32;;
40150;SDS011;25866;52.420;10.640;2024-03-23T01:48:48;9.03;;;3.50;;
40150;SDS011;25866;52.420;10.640;2024-03-23T01:51:15;10.37;;;4.50;;
40150;SDS011;25866;52.420;10.640;2024-03-23T01:53:41;7.90;;;3.73;;
40150;SDS011;25866;52.420;10.640;2024-03-23T01:56:06;10.60;;;3.73;;
40150;SDS011;25866;52.420;10.640;2024-03-23T01:58:33;8.93;;;4.03;;
40150;SDS011;25866;52.420;10.640;2024-03-23T02:00:59;12.05;;;4.35;;
40150;SDS011;25866;52.420;10.640;2024-03-23T02:03:27;11.07;;;4.10;;
40150;SDS011;25866;52.420;10.640;2024-03-23T02:05:54;9.90;;;3.43;;
40150;SDS011;25866;52.420;10.640;2024-03-23T02:08:21;9.23;;;3.37;;
40150;SDS011;25866;52.420;10.640;2024-03-23T02:10:48;8.67;;;3.27;;
40150;SDS011;25866;52.420;10.640;2024-03-23T02:13:15;7.60;;;3.60;;
40150;SDS011;25866;52.420;10.640;2024-03-23T02:15:42;11.50;;;4.17;;
40150;SDS011;25866;52.420;10.640;2024-03-23T02:18:09;15.13;;;3.53;;
40150;SDS011;25866;52.420;10.640;2024-03-23T02:20:36;13.07;;;3.90;;
40150;SDS011;25866;52.420;10.640;2024-03-23T02:23:03;10.60;;;3.53;;
40150;SDS011;25866;52.420;10.640;2024-03-23T02:25:31;11.37;;;3.63;;
40150;SDS011;25866;52.420;10.640;2024-03-23T02:27:58;7.37;;;3.57;;
40150;SDS011;25866;52.420;10.640;2024-03-23T02:30:25;7.15;;;3.40;;
40150;SDS011;25866;52.420;10.640;2024-03-23T02:32:51;9.32;;;3.40;;
40150;SDS011;25866;52.420;10.640;2024-03-23T02:35:17;6.30;;;3.30;;
40150;SDS011;25866;52.420;10.640;2024-03-23T02:37:43;10.17;;;3.73;;
40150;SDS011;25866;52.420;10.640;2024-03-23T02:40:11;9.40;;;3.60;;
40150;SDS011;25866;52.420;10.640;2024-03-23T02:42:36;12.63;;;3.63;;
40150;SDS011;25866;52.420;10.640;2024-03-23T02:45:04;9.57;;;3.43;;
40150;SDS011;25866;52.420;10.640;2024-03-23T02:47:32;5.80;;;2.90;;
40150;SDS011;25866;52.420;10.640;2024-03-23T02:49:58;12.13;;;3.53;;
40150;SDS011;25866;52.420;10.640;2024-03-23T02:52:24;12.30;;;3.80;;
40150;SDS011;25866;52.420;10.640;2024-03-23T02:54:50;9.30;;;3.20;;
40150;SDS011;25866;52.420;10.640;2024-03-23T03:00:01;10.13;;;4.00;;
40150;SDS011;25866;52.420;10.640;2024-03-23T03:02:27;9.07;;;3.17;;
40150;SDS011;25866;52.420;10.640;2024-03-23T03:04:53;10.07;;;3.33;;
40150;SDS011;25866;52.420;10.640;2024-03-23T03:07:20;6.00;;;3.10;;
40150;SDS011;25866;52.420;10.640;2024-03-23T03:09:45;14.00;;;4.07;;
40150;SDS011;25866;52.420;10.640;2024-03-23T03:12:11;6.93;;;3.53;;
40150;SDS011;25866;52.420;10.640;2024-03-23T03:14:37;6.60;;;3.07;;
40150;SDS011;25866;52.420;10.640;2024-03-23T03:17:05;10.60;;;3.37;;
40150;SDS011;25866;52.420;10.640;2024-03-23T03:19:31;11.53;;;4.20;;
40150;SDS011;25866;52.420;10.640;2024-03-23T03:21:57;12.27;;;4.00;;
40150;SDS011;25866;52.420;10.640;2024-03-23T03:24:23;8.17;;;3.37;;
40150;SDS011;25866;52.420;10.640;2024-03-23T03:27:03;10.27;;;3.53;;
40150;SDS011;25866;52.420;10.640;2024-03-23T03:29:31;12.03;;;3.83;;
40150;SDS011;25866;52.420;10.640;2024-03-23T03:32:00;14.57;;;4.37;;
40150;SDS011;25866;52.420;10.640;2024-03-23T03:34:27;11.10;;;4.63;;
40150;SDS011;25866;52.420;10.640;2024-03-23T03:39:24;10.30;;;4.13;;
40150;SDS011;25866;52.420;10.640;2024-03-23T03:41:51;13.90;;;4.33;;
40150;SDS011;25866;52.420;10.640;2024-03-23T03:44:17;12.67;;;4.37;;
40150;SDS011;25866;52.420;10.640;2024-03-23T03:46:44;16.10;;;4.93;;
40150;SDS011;25866;52.420;10.640;2024-03-23T03:49:10;9.87;;;4.87;;
40150;SDS011;25866;52.420;10.640;2024-03-23T03:51:36;11.03;;;5.07;;
40150;SDS011;25866;52.420;10.640;2024-03-23T03:54:01;12.77;;;5.00;;
40150;SDS011;25866;52.420;10.640;2024-03-23T03:56:27;10.10;;;4.63;;
40150;SDS011;25866;52.420;10.640;2024-03-23T03:58:55;16.50;;;6.30;;
40150;SDS011;25866;52.420;10.640;2024-03-23T04:01:21;14.00;;;5.60;;
40150;SDS011;25866;52.420;10.640;2024-03-23T04:03:47;12.80;;;5.80;;
40150;SDS011;25866;52.420;10.640;2024-03-23T04:06:18;13.97;;;5.43;;
40150;SDS011;25866;52.420;10.640;2024-03-23T04:08:45;11.67;;;4.93;;
40150;SDS011;25866;52.420;10.640;2024-03-23T04:11:11;11.57;;;4.63;;
40150;SDS011;25866;52.420;10.640;2024-03-23T04:13:36;10.87;;;4.50;;
40150;SDS011;25866;52.420;10.640;2024-03-23T04:16:02;12.80;;;4.73;;
40150;SDS011;25866;52.420;10.640;2024-03-23T04:18:29;10.93;;;4.67;;
40150;SDS011;25866;52.420;10.640;2024-03-23T04:20:55;11.97;;;4.47;;
40150;SDS011;25866;52.420;10.640;2024-03-23T04:23:21;11.43;;;4.13;;
40150;SDS011;25866;52.420;10.640;2024-03-23T04:25:47;12.60;;;4.13;;
40150;SDS011;25866;52.420;10.640;2024-03-23T04:28:13;12.50;;;3.67;;
40150;SDS011;25866;52.420;10.640;2024-03-23T04:30:39;14.17;;;4.20;;
40150;SDS011;25866;52.420;10.640;2024-03-23T04:33:05;13.40;;;3.97;;
40150;SDS011;25866;52.420;10.640;2024-03-23T04:35:30;11.87;;;4.00;;
40150;SDS011;25866;52.420;10.640;2024-03-23T04:37:56;12.10;;;3.70;;
40150;SDS011;25866;52.420;10.640;2024-03-23T04:40:23;11.20;;;3.67;;
40150;SDS011;25866;52.420;10.640;2024-03-23T04:42:50;12.27;;;3.77;;
40150;SDS011;25866;52.420;10.640;2024-03-23T04:45:16;11.77;;;4.10;;
40150;SDS011;25866;52.420;10.640;2024-03-23T04:47:42;10.03;;;4.37;;
40150;SDS011;25866;52.420;10.640;2024-03-23T04:50:08;10.80;;;3.63;;
40150;SDS011;25866;52.420;10.640;2024-03-23T04:52:35;13.93;;;4.20;;
40150;SDS011;25866;52.420;10.640;2024-03-23T04:55:01;10.57;;;3.73;;
40150;SDS011;25866;52.420;10.640;2024-03-23T04:57:29;10.47;;;3.70;;
40150;SDS011;25866;52.420;10.640;2024-03-23T04:59:55;10.57;;;3.37;;
40150;SDS011;25866;52.420;10.640;2024-03-23T05:02:21;11.67;;;3.60;;
40150;SDS011;25866;52.420;10.640;2024-03-23T05:04:47;8.40;;;3.57;;
40150;SDS011;25866;52.420;10.640;2024-03-23T05:07:13;11.00;;;3.20;;
40150;SDS011;25866;52.420;10.640;2024-03-23T05:09:49;9.20;;;2.83;;
40150;SDS011;25866;52.420;10.640;2024-03-23T05:12:15;9.03;;;2.67;;
40150;SDS011;25866;52.420;10.640;2024-03-23T05:14:41;12.00;;;2.80;;
40150;SDS011;25866;52.420;10.640;2024-03-23T05:17:06;9.93;;;2.70;;
40150;SDS011;25866;52.420;10.640;2024-03-23T05:19:34;9.83;;;2.67;;
40150;SDS011;25866;52.420;10.640;2024-03-23T05:22:02;6.10;;;2.07;;
40150;SDS011;25866;52.420;10.640;2024-03-23T05:24:28;10.87;;;2.83;;
40150;SDS011;25866;52.420;10.640;2024-03-23T05:26:54;11.47;;;2.60;;
40150;SDS011;25866;52.420;10.640;2024-03-23T05:29:32;10.67;;;2.50;;
40150;SDS011;25866;52.420;10.640;2024-03-23T05:31:58;8.77;;;2.30;;
40150;SDS011;25866;52.420;10.640;2024-03-23T05:34:24;10.73;;;2.90;;
40150;SDS011;25866;52.420;10.640;2024-03-23T05:36:50;7.83;;;2.73;;
40150;SDS011;25866;52.420;10.640;2024-03-23T05:39:17;5.70;;;2.00;;
40150;SDS011;25866;52.420;10.640;2024-03-23T05:41:43;7.17;;;2.20;;
40150;SDS011;25866;52.420;10.640;2024-03-23T05:44:09;7.93;;;2.43;;
40150;SDS011;25866;52.420;10.640;2024-03-23T05:46:35;7.70;;;2.53;;
40150;SDS011;25866;52.420;10.640;2024-03-23T05:49:02;8.07;;;2.63;;
40150;SDS011;25866;52.420;10.640;2024-03-23T05:51:28;12.70;;;3.00;;
40150;SDS011;25866;52.420;10.640;2024-03-23T05:53:54;8.17;;;2.50;;
40150;SDS011;25866;52.420;10.640;2024-03-23T05:56:20;8.80;;;2.83;;
40150;SDS011;25866;52.420;10.640;2024-03-23T05:58:46;6.87;;;2.97;;
40150;SDS011;25866;52.420;10.640;2024-03-23T06:01:11;9.10;;;3.10;;
40150;SDS011;25866;52.420;10.640;2024-03-23T06:03:37;13.20;;;3.00;;
40150;SDS011;25866;52.420;10.640;2024-03-23T06:06:03;10.60;;;2.80;;
40150;SDS011;25866;52.420;10.640;2024-03-23T06:08:36;11.67;;;2.50;;
40150;SDS011;25866;52.420;10.640;2024-03-23T06:11:03;8.73;;;2.20;;
40150;SDS011;25866;52.420;10.640;2024-03-23T06:13:31;9.17;;;2.10;;
40150;SDS011;25866;52.420;10.640;2024-03-23T06:15:57;7.80;;;2.10;;
40150;SDS011;25866;52.420;10.640;2024-03-23T06:18:25;10.60;;;2.17;;
40150;SDS011;25866;52.420;10.640;2024-03-23T06:20:51;7.00;;;1.90;;
40150;SDS011;25866;52.420;10.640;2024-03-23T06:23:17;9.67;;;2.00;;
40150;SDS011;25866;52.420;10.640;2024-03-23T06:25:45;5.93;;;1.77;;
40150;SDS011;25866;52.420;10.640;2024-03-23T06:28:13;6.73;;;1.70;;
40150;SDS011;25866;52.420;10.640;2024-03-23T06:30:39;11.30;;;2.47;;
40150;SDS011;25866;52.420;10.640;2024-03-23T06:33:05;10.33;;;2.60;;
40150;SDS011;25866;52.420;10.640;2024-03-23T06:35:31;14.83;;;3.07;;
40150;SDS011;25866;52.420;10.640;2024-03-23T06:37:56;11.13;;;2.80;;
40150;SDS011;25866;52.420;10.640;2024-03-23T06:43:13;10.50;;;3.07;;
40150;SDS011;25866;52.420;10.640;2024-03-23T06:45:39;9.20;;;2.60;;
40150;SDS011;25866;52.420;10.640;2024-03-23T06:48:05;8.93;;;2.33;;
40150;SDS011;25866;52.420;10.640;2024-03-23T06:50:33;6.63;;;2.23;;
40150;SDS011;25866;52.420;10.640;2024-03-23T06:52:59;12.07;;;3.00;;
40150;SDS011;25866;52.420;10.640;2024-03-23T06:55:27;9.13;;;2.33;;
40150;SDS011;25866;52.420;10.640;2024-03-23T06:57:53;9.13;;;2.40;;
40150;SDS011;25866;52.420;10.640;2024-03-23T07:00:19;10.17;;;2.20;;
40150;SDS011;25866;52.420;10.640;2024-03-23T07:02:45;8.33;;;2.27;;
40150;SDS011;25866;52.420;10.640;2024-03-23T07:05:11;12.53;;;2.57;;
40150;SDS011;25866;52.420;10.640;2024-03-23T07:07:37;8.47;;;2.20;;
40150;SDS011;25866;52.420;10.640;2024-03-23T07:10:13;9.37;;;2.40;;
40150;SDS011;25866;52.420;10.640;2024-03-23T07:12:39;10.70;;;2.23;;
40150;SDS011;25866;52.420;10.640;2024-03-23T07:15:06;10.80;;;2.60;;
40150;SDS011;25866;52.420;10.640;2024-03-23T07:17:37;9.70;;;2.60;;
40150;SDS011;25866;52.420;10.640;2024-03-23T07:20:15;8.50;;;2.57;;
40150;SDS011;25866;52.420;10.640;2024-03-23T07:22:42;8.43;;;2.90;;
40150;SDS011;25866;52.420;10.640;2024-03-23T07:25:08;11.93;;;2.70;;
40150;SDS011;25866;52.420;10.640;2024-03-23T07:27:33;9.50;;;2.63;;
40150;SDS011;25866;52.420;10.640;2024-03-23T07:29:59;9.83;;;2.57;;
40150;SDS011;25866;52.420;10.640;2024-03-23T07:32:26;12.00;;;2.30;;
40150;SDS011;25866;52.420;10.640;2024-03-23T07:34:52;12.50;;;3.00;;
40150;SDS011;25866;52.420;10.640;2024-03-23T07:37:18;12.43;;;2.60;;
40150;SDS011;25866;52.420;10.640;2024-03-23T07:39:44;10.70;;;2.63;;
40150;SDS011;25866;52.420;10.640;2024-03-23T07:42:10;7.93;;;2.30;;
40150;SDS011;25866;52.420;10.640;2024-03-23T07:44:35;12.00;;;2.40;;
40150;SDS011;25866;52.420;10.640;2024-03-23T07:47:10;6.03;;;2.33;;
40150;SDS011;25866;52.420;10.640;2024-03-23T07:49:38;10.93;;;2.00;;
40150;SDS011;25866;52.420;10.640;2024-03-23T07:52:05;8.57;;;1.87;;
40150;SDS011;25866;52.420;10.640;2024-03-23T07:54:31;8.50;;;2.00;;
40150;SDS011;25866;52.420;10.640;2024-03-23T07:56:57;6.93;;;1.40;;
40150;SDS011;25866;52.420;10.640;2024-03-23T08:01:51;12.33;;;1.90;;
40150;SDS011;25866;52.420;10.640;2024-03-23T08:04:17;7.47;;;1.87;;
40150;SDS011;25866;52.420;10.640;2024-03-23T08:06:43;5.47;;;1.50;;
40150;SDS011;25866;52.420;10.640;2024-03-23T08:09:08;6.27;;;1.70;;
40150;SDS011;25866;52.420;10.640;2024-03-23T08:11:34;7.10;;;1.67;;
40150;SDS011;25866;52.420;10.640;2024-03-23T08:16:36;9.57;;;1.57;;
40150;SDS011;25866;52.420;10.640;2024-03-23T08:19:02;10.33;;;1.73;;
40150;SDS011;25866;52.420;10.640;2024-03-23T08:21:31;6.17;;;1.17;;
40150;SDS011;25866;52.420;10.640;2024-03-23T08:23:56;9.33;;;1.50;;
40150;SDS011;25866;52.420;10.640;2024-03-23T08:26:22;11.87;;;1.80;;
40150;SDS011;25866;52.420;10.640;2024-03-23T08:28:48;9.90;;;1.67;;
40150;SDS011;25866;52.420;10.640;2024-03-23T08:33:44;8.23;;;1.90;;
40150;SDS011;25866;52.420;10.640;2024-03-23T08:36:10;8.03;;;1.50;;
40150;SDS011;25866;52.420;10.640;2024-03-23T08:38:42;8.80;;;1.80;;
40150;SDS011;25866;52.420;10.640;2024-03-23T08:41:09;9.50;;;2.07;;
40150;SDS011;25866;52.420;10.640;2024-03-23T08:43:40;8.63;;;1.93;;
40150;SDS011;25866;52.420;10.640;2024-03-23T08:48:41;8.73;;;1.80;;
40150;SDS011;25866;52.420;10.640;2024-03-23T08:51:13;6.23;;;1.33;;
40150;SDS011;25866;52.420;10.640;2024-03-23T08:53:40;5.87;;;1.43;;
40150;SDS011;25866;52.420;10.640;2024-03-23T08:56:06;11.17;;;2.07;;
40150;SDS011;25866;52.420;10.640;2024-03-23T08:58:33;14.17;;;2.13;;
40150;SDS011;25866;52.420;10.640;2024-03-23T09:03:33;9.97;;;2.37;;
40150;SDS011;25866;52.420;10.640;2024-03-23T09:06:00;13.60;;;3.10;;
40150;SDS011;25866;52.420;10.640;2024-03-23T09:08:27;12.53;;;3.20;;
40150;SDS011;25866;52.420;10.640;2024-03-23T09:10:54;9.40;;;3.00;;
40150;SDS011;25866;52.420;10.640;2024-03-23T09:13:20;16.07;;;4.20;;
40150;SDS011;25866;52.420;10.640;2024-03-23T09:15:50;15.30;;;3.53;;
40150;SDS011;25866;52.420;10.640;2024-03-23T09:18:21;13.40;;;3.67;;
40150;SDS011;25866;52.420;10.640;2024-03-23T09:20:56;16.53;;;4.07;;
40150;SDS011;25866;52.420;10.640;2024-03-23T09:23:22;15.63;;;3.97;;
40150;SDS011;25866;52.420;10.640;2024-03-23T09:25:48;15.03;;;3.47;;
40150;SDS011;25866;52.420;10.640;2024-03-23T09:28:14;18.90;;;4.20;;
40150;SDS011;25866;52.420;10.640;2024-03-23T09:33:30;13.97;;;4.13;;
40150;SDS011;25866;52.420;10.640;2024-03-23T09:35:56;16.67;;;4.40;;
40150;SDS011;25866;52.420;10.640;2024-03-23T09:38:25;16.73;;;4.63;;
40150;SDS011;25866;52.420;10.640;2024-03-23T09:40:52;16.63;;;4.40;;
40150;SDS011;25866;52.420;10.640;2024-03-23T09:43:19;14.40;;;3.80;;
40150;SDS011;25866;52.420;10.640;2024-03-23T09:45:45;15.67;;;4.43;;
40150;SDS011;25866;52.420;10.640;2024-03-23T09:48:12;18.93;;;4.90;;
40150;SDS011;25866;52.420;10.640;2024-03-23T09:50:47;14.60;;;3.73;;
40150;SDS011;25866;52.420;10.640;2024-03-23T09:53:14;17.37;;;4.93;;
40150;SDS011;25866;52.420;10.640;2024-03-23T09:55:41;18.83;;;4.40;;
40150;SDS011;25866;52.420;10.640;2024-03-23T09:58:08;19.50;;;4.43;;
40150;SDS011;25866;52.420;10.640;2024-03-23T10:00:45;15.20;;;4.07;;
40150;SDS011;25866;52.420;10.640;2024-03-23T10:03:11;13.93;;;4.10;;
40150;SDS011;25866;52.420;10.640;2024-03-23T10:05:37;17.83;;;4.40;;
40150;SDS011;25866;52.420;10.640;2024-03-23T10:13:24;17.77;;;4.47;;
40150;SDS011;25866;52.420;10.640;2024-03-23T10:15:54;20.47;;;5.13;;
40150;SDS011;25866;52.420;10.640;2024-03-23T10:18:22;14.97;;;3.87;;
40150;SDS011;25866;52.420;10.640;2024-03-23T10:20:52;18.37;;;4.17;;
40150;SDS011;25866;52.420;10.640;2024-03-23T10:23:29;14.97;;;3.70;;
40150;SDS011;25866;52.420;10.640;2024-03-23T10:25:55;10.80;;;3.67;;
40150;SDS011;25866;52.420;10.640;2024-03-23T10:28:25;15.50;;;4.40;;
40150;SDS011;25866;52.420;10.640;2024-03-23T10:30:54;11.90;;;4.00;;
40150;SDS011;25866;52.420;10.640;2024-03-23T10:33:20;15.57;;;4.40;;
40150;SDS011;25866;52.420;10.640;2024-03-23T10:35:46;13.70;;;4.23;;
40150;SDS011;25866;52.420;10.640;2024-03-23T10:38:13;13.73;;;3.70;;
40150;SDS011;25866;52.420;10.640;2024-03-23T10:40:39;14.18;;;3.60;;
40150;SDS011;25866;52.420;10.640;2024-03-23T10:43:25;17.00;;;3.67;;
40150;SDS011;25866;52.420;10.640;2024-03-23T10:45:51;15.60;;;3.72;;
40150;SDS011;25866;52.420;10.640;2024-03-23T10:48:16;15.18;;;4.60;;
40150;SDS011;25866;52.420;10.640;2024-03-23T10:50:42;9.77;;;3.15;;
40150;SDS011;25866;52.420;10.640;2024-03-23T10:53:08;15.90;;;3.85;;
40150;SDS011;25866;52.420;10.640;2024-03-23T10:55:34;17.40;;;4.20;;
40150;SDS011;25866;52.420;10.640;2024-03-23T10:58:00;8.02;;;3.03;;
40150;SDS011;25866;52.420;10.640;2024-03-23T11:00:27;15.48;;;3.97;;
40150;SDS011;25866;52.420;10.640;2024-03-23T11:06:01;12.67;;;3.27;;
40150;SDS011;25866;52.420;10.640;2024-03-23T11:08:32;8.40;;;2.30;;
40150;SDS011;25866;52.420;10.640;2024-03-23T11:11:14;9.73;;;2.63;;
40150;SDS011;25866;52.420;10.640;2024-03-23T11:13:50;9.80;;;2.40;;
40150;SDS011;25866;52.420;10.640;2024-03-23T11:16:21;9.40;;;1.70;;
40150;SDS011;25866;52.420;10.640;2024-03-23T11:22:01;8.02;;;2.00;;
40150;SDS011;25866;52.420;10.640;2024-03-23T11:24:28;18.38;;;2.85;;
40150;SDS011;25866;52.420;10.640;2024-03-23T11:26:54;8.40;;;2.83;;
40150;SDS011;25866;52.420;10.640;2024-03-23T11:29:20;9.50;;;2.08;;
40150;SDS011;25866;52.420;10.640;2024-03-23T11:31:53;6.75;;;1.80;;
40150;SDS011;25866;52.420;10.640;2024-03-23T11:34:19;12.60;;;2.53;;
40150;SDS011;25866;52.420;10.640;2024-03-23T11:36:45;8.03;;;2.20;;
40150;SDS011;25866;52.420;10.640;2024-03-23T11:39:12;9.93;;;2.33;;
40150;SDS011;25866;52.420;10.640;2024-03-23T11:41:50;8.25;;;2.42;;
40150;SDS011;25866;52.420;10.640;2024-03-23T11:46:46;7.30;;;2.20;;
40150;SDS011;25866;52.420;10.640;2024-03-23T11:49:28;11.95;;;2.60;;
40150;SDS011;25866;52.420;10.640;2024-03-23T11:51:56;6.97;;;1.88;;
40150;SDS011;25866;52.420;10.640;2024-03-23T11:54:22;4.03;;;1.52;;
40150;SDS011;25866;52.420;10.640;2024-03-23T11:56:58;5.00;;;1.47;;
40150;SDS011;25866;52.420;10.640;2024-03-23T11:59:39;3.27;;;1.23;;
40150;SDS011;25866;52.420;10.640;2024-03-23T12:02:07;5.77;;;1.40;;
40150;SDS011;25866;52.420;10.640;2024-03-23T12:04:35;3.47;;;1.20;;
40150;SDS011;25866;52.420;10.640;2024-03-23T12:07:17;2.33;;;1.00;;
40150;SDS011;25866;52.420;10.640;2024-03-23T12:09:44;4.70;;;1.10;;
40150;SDS011;25866;52.420;10.640;2024-03-23T12:12:19;4.93;;;1.30;;
40150;SDS011;25866;52.420;10.640;2024-03-23T12:15:06;4.13;;;1.33;;
40150;SDS011;25866;52.420;10.640;2024-03-23T12:17:33;3.43;;;1.40;;
40150;SDS011;25866;52.420;10.640;2024-03-23T12:20:00;4.77;;;1.50;;
40150;SDS011;25866;52.420;10.640;2024-03-23T12:22:33;4.27;;;1.07;;
40150;SDS011;25866;52.420;10.640;2024-03-23T12:25:00;2.33;;;1.20;;
40150;SDS011;25866;52.420;10.640;2024-03-23T12:27:26;3.63;;;1.33;;
40150;SDS011;25866;52.420;10.640;2024-03-23T12:29:52;1.83;;;0.90;;
40150;SDS011;25866;52.420;10.640;2024-03-23T12:32:18;1.63;;;0.80;;
40150;SDS011;25866;52.420;10.640;2024-03-23T12:34:44;1.70;;;0.70;;
40150;SDS011;25866;52.420;10.640;2024-03-23T12:37:09;2.37;;;0.70;;
40150;SDS011;25866;52.420;10.640;2024-03-23T12:39:35;2.90;;;1.00;;
40150;SDS011;25866;52.420;10.640;2024-03-23T12:42:02;2.73;;;0.93;;
40150;SDS011;25866;52.420;10.640;2024-03-23T12:44:29;4.27;;;1.23;;
40150;SDS011;25866;52.420;10.640;2024-03-23T12:46:55;2.87;;;0.90;;
40150;SDS011;25866;52.420;10.640;2024-03-23T12:49:21;2.37;;;0.90;;
40150;SDS011;25866;52.420;10.640;2024-03-23T12:51:54;2.27;;;0.83;;
40150;SDS011;25866;52.420;10.640;2024-03-23T12:54:25;2.17;;;0.97;;
40150;SDS011;25866;52.420;10.640;2024-03-23T12:56:51;3.17;;;1.17;;
40150;SDS011;25866;52.420;10.640;2024-03-23T12:59:17;2.07;;;0.90;;
40150;SDS011;25866;52.420;10.640;2024-03-23T13:01:46;4.83;;;1.10;;
40150;SDS011;25866;52.420;10.640;2024-03-23T13:04:14;2.73;;;0.90;;
40150;SDS011;25866;52.420;10.640;2024-03-23T13:06:43;1.43;;;0.70;;
40150;SDS011;25866;52.420;10.640;2024-03-23T13:09:09;2.63;;;0.97;;
40150;SDS011;25866;52.420;10.640;2024-03-23T13:11:35;2.93;;;0.93;;
40150;SDS011;25866;52.420;10.640;2024-03-23T13:14:14;1.33;;;0.90;;
40150;SDS011;25866;52.420;10.640;2024-03-23T13:16:42;2.73;;;1.13;;
40150;SDS011;25866;52.420;10.640;2024-03-23T13:19:07;4.80;;;1.10;;
40150;SDS011;25866;52.420;10.640;2024-03-23T13:21:33;2.73;;;0.90;;
40150;SDS011;25866;52.420;10.640;2024-03-23T13:24:00;1.47;;;0.80;;
40150;SDS011;25866;52.420;10.640;2024-03-23T13:26:26;2.20;;;0.90;;
40150;SDS011;25866;52.420;10.640;2024-03-23T13:28:51;1.83;;;0.90;;
40150;SDS011;25866;52.420;10.640;2024-03-23T13:31:17;4.30;;;1.40;;
40150;SDS011;25866;52.420;10.640;2024-03-23T13:33:43;4.30;;;1.30;;
40150;SDS011;25866;52.420;10.640;2024-03-23T13:36:09;3.40;;;1.30;;
40150;SDS011;25866;52.420;10.640;2024-03-23T13:38:35;1.97;;;1.27;;
40150;SDS011;25866;52.420;10.640;2024-03-23T13:41:01;5.07;;;1.40;;
40150;SDS011;25866;52.420;10.640;2024-03-23T13:43:30;2.40;;;1.27;;
40150;SDS011;25866;52.420;10.640;2024-03-23T13:45:57;4.33;;;1.70;;
40150;SDS011;25866;52.420;10.640;2024-03-23T13:48:25;3.47;;;1.50;;
40150;SDS011;25866;52.420;10.640;2024-03-23T13:51:04;3.33;;;1.30;;
40150;SDS011;25866;52.420;10.640;2024-03-23T13:53:32;2.70;;;1.47;;
40150;SDS011;25866;52.420;10.640;2024-03-23T13:56:18;6.70;;;1.60;;
40150;SDS011;25866;52.420;10.640;2024-03-23T13:58:44;4.23;;;2.00;;
40150;SDS011;25866;52.420;10.640;2024-03-23T14:01:12;2.77;;;1.53;;
40150;SDS011;25866;52.420;10.640;2024-03-23T14:03:39;5.43;;;2.00;;
40150;SDS011;25866;52.420;10.640;2024-03-23T14:06:21;3.73;;;1.63;;
40150;SDS011;25866;52.420;10.640;2024-03-23T14:08:46;6.10;;;2.10;;
40150;SDS011;25866;52.420;10.640;2024-03-23T14:11:17;5.17;;;2.13;;
40150;SDS011;25866;52.420;10.640;2024-03-23T14:13:44;5.30;;;1.90;;
40150;SDS011;25866;52.420;10.640;2024-03-23T14:16:10;3.97;;;1.77;;
40150;SDS011;25866;52.420;10.640;2024-03-23T14:18:36;3.97;;;1.67;;
40150;SDS011;25866;52.420;10.640;2024-03-23T14:21:02;3.10;;;1.60;;
40150;SDS011;25866;52.420;10.640;2024-03-23T14:23:28;4.87;;;1.30;;
40150;SDS011;25866;52.420;10.640;2024-03-23T14:25:58;4.13;;;1.30;;
40150;SDS011;25866;52.420;10.640;2024-03-23T14:28:24;8.13;;;1.50;;
40150;SDS011;25866;52.420;10.640;2024-03-23T14:30:50;3.33;;;1.30;;
40150;SDS011;25866;52.420;10.640;2024-03-23T14:33:16;3.50;;;1.10;;
40150;SDS011;25866;52.420;10.640;2024-03-23T14:35:55;2.27;;;1.00;;
40150;SDS011;25866;52.420;10.640;2024-03-23T14:38:22;2.23;;;1.23;;
40150;SDS011;25866;52.420;10.640;2024-03-23T14:40:48;2.03;;;1.13;;
40150;SDS011;25866;52.420;10.640;2024-03-23T14:43:14;1.90;;;1.17;;
40150;SDS011;25866;52.420;10.640;2024-03-23T14:48:58;5.05;;;1.42;;
40150;SDS011;25866;52.420;10.640;2024-03-23T14:54:00;1.85;;;0.88;;
40150;SDS011;25866;52.420;10.640;2024-03-23T14:56:32;5.07;;;1.30;;
40150;SDS011;25866;52.420;10.640;2024-03-23T14:58:59;2.53;;;1.10;;
40150;SDS011;25866;52.420;10.640;2024-03-23T15:01:25;5.00;;;1.10;;
40150;SDS011;25866;52.420;10.640;2024-03-23T15:03:51;2.67;;;1.10;;
40150;SDS011;25866;52.420;10.640;2024-03-23T15:06:29;3.63;;;1.33;;
40150;SDS011;25866;52.420;10.640;2024-03-23T15:08:55;4.77;;;1.40;;
40150;SDS011;25866;52.420;10.640;2024-03-23T15:11:21;3.40;;;1.40;;
40150;SDS011;25866;52.420;10.640;2024-03-23T15:13:49;4.63;;;1.40;;
40150;SDS011;25866;52.420;10.640;2024-03-23T15:16:26;2.97;;;1.30;;
40150;SDS011;25866;52.420;10.640;2024-03-23T15:18:51;3.53;;;1.80;;
40150;SDS011;25866;52.420;10.640;2024-03-23T15:21:17;4.70;;;1.60;;
40150;SDS011;25866;52.420;10.640;2024-03-23T15:23:46;5.67;;;1.60;;
40150;SDS011;25866;52.420;10.640;2024-03-23T15:26:14;3.60;;;1.40;;
40150;SDS011;25866;52.420;10.640;2024-03-23T15:28:47;4.23;;;1.53;;
40150;SDS011;25866;52.420;10.640;2024-03-23T15:31:22;4.87;;;1.90;;
40150;SDS011;25866;52.420;10.640;2024-03-23T15:33:49;2.23;;;1.73;;
40150;SDS011;25866;52.420;10.640;2024-03-23T15:36:26;6.20;;;2.07;;
40150;SDS011;25866;52.420;10.640;2024-03-23T15:38:51;4.60;;;1.87;;
40150;SDS011;25866;52.420;10.640;2024-03-23T15:41:19;3.37;;;1.70;;
40150;SDS011;25866;52.420;10.640;2024-03-23T15:43:48;4.93;;;1.47;;
40150;SDS011;25866;52.420;10.640;2024-03-23T15:46:19;4.30;;;2.07;;
40150;SDS011;25866;52.420;10.640;2024-03-23T15:48:45;5.77;;;1.50;;
40150;SDS011;25866;52.420;10.640;2024-03-23T15:51:15;3.93;;;1.40;;
40150;SDS011;25866;52.420;10.640;2024-03-23T15:53:43;3.97;;;1.40;;
40150;SDS011;25866;52.420;10.640;2024-03-23T15:56:15;2.13;;;1.53;;
40150;SDS011;25866;52.420;10.640;2024-03-23T15:58:40;3.57;;;1.20;;
40150;SDS011;25866;52.420;10.640;2024-03-23T16:01:07;6.33;;;1.27;;
40150;SDS011;25866;52.420;10.640;2024-03-23T16:03:37;4.87;;;1.47;;
40150;SDS011;25866;52.420;10.640;2024-03-23T16:06:04;3.10;;;1.00;;
40150;SDS011;25866;52.420;10.640;2024-03-23T16:08:32;3.33;;;1.20;;